Time;durP1;ratioP1;P1;durP2;ratioP2;P2;SDS_P1;SDS_P2;PMS_P1;PMS_P2;Temp;Humidity;BMP_temperature;BMP_pressure;BME280_temperature;BME280_humidity;BME280_pressure;Samples;Min_cycle;Max_cycle;Signal;HPM_P1;HPM_P2
2021/12/04 00:00:47;;;;;;;;;;;18.50;49.00;;;;;;5065552;28;42969;-83
2021/12/04 00:03:13;;;;;;;;;;;18.60;49.10;;;;;;5064848;28;42939;-79
2021/12/04 00:05:46;;;;;;;;;;;18.50;49.00;;;;;;5065191;28;42923;-82
2021/12/04 00:08:12;;;;;;;;;;;18.50;49.00;;;;;;5064315;28;43003;-83
2021/12/04 00:10:38;;;;;;;;;;;18.50;49.00;;;;;;5065648;28;44238;-84
2021/12/04 00:13:03;;;;;;;;;;;18.50;49.10;;;;;;5065161;28;43019;-84
2021/12/04 00:15:29;;;;;;;;;;;18.50;49.00;;;;;;5064678;28;43472;-84
2021/12/04 00:17:56;;;;;;;;;;;18.50;49.00;;;;;;5064425;28;42929;-83
2021/12/04 00:20:24;;;;;;;;;;;18.50;49.00;;;;;;5063646;28;44370;-83
2021/12/04 00:22:49;;;;;;;;;;;18.50;49.00;;;;;;5064939;28;43046;-84
2021/12/04 00:25:15;;;;;;;;;;;18.50;49.00;;;;;;5064164;28;42944;-83
2021/12/04 00:27:40;;;;;;;;;;;18.50;49.00;;;;;;5065459;28;43314;-80
2021/12/04 00:30:06;;;;;;;;;;;18.50;49.00;;;;;;5065499;28;44114;-83
2021/12/04 00:32:34;;;;;;;;;;;18.50;49.00;;;;;;5064257;28;43059;-83
2021/12/04 00:35:09;;;;;;;;;;;18.50;49.00;;;;;;5065075;28;43557;-82
2021/12/04 00:51:09;;;;;;;;;;;18.50;48.90;;;;;;5064158;28;43154;-84
2021/12/04 00:53:34;;;;;;;;;;;18.50;49.40;;;;;;5063812;28;42939;-83
2021/12/04 00:56:00;;;;;;;;;;;18.50;48.90;;;;;;5064711;28;44081;-80
2021/12/04 00:58:25;;;;;;;;;;;18.50;48.90;;;;;;5064967;28;42878;-84
2021/12/04 01:00:51;;;;;;;;;;;18.60;49.00;;;;;;5062544;28;44664;-76
2021/12/04 01:03:17;;;;;;;;;;;18.60;49.00;;;;;;5046017;28;42816;-83
2021/12/04 01:05:42;;;;;;;;;;;18.50;48.90;;;;;;5064185;28;44685;-83
2021/12/04 01:08:08;;;;;;;;;;;18.50;48.90;;;;;;5064879;28;42846;-84
2021/12/04 01:10:35;;;;;;;;;;;18.50;48.90;;;;;;5063792;28;42879;-84
2021/12/04 01:13:04;;;;;;;;;;;18.50;48.90;;;;;;5063549;28;43566;-83
2021/12/04 01:15:29;;;;;;;;;;;18.60;49.00;;;;;;5064075;28;44053;-83
2021/12/04 01:17:55;;;;;;;;;;;18.50;48.90;;;;;;5063416;28;43673;-77
2021/12/04 01:20:21;;;;;;;;;;;18.60;48.90;;;;;;5063110;28;42879;-83
2021/12/04 01:22:46;;;;;;;;;;;18.50;48.90;;;;;;5064062;28;42912;-78
2021/12/04 01:25:12;;;;;;;;;;;18.50;48.90;;;;;;5063899;28;43936;-83
2021/12/04 01:27:38;;;;;;;;;;;18.50;48.90;;;;;;5063264;28;42973;-83
2021/12/04 01:30:04;;;;;;;;;;;18.50;48.90;;;;;;5063988;28;43050;-83
2021/12/04 01:32:30;;;;;;;;;;;18.50;48.90;;;;;;5063281;28;43075;-81
2021/12/04 01:34:56;;;;;;;;;;;18.50;48.90;;;;;;5064930;28;42990;-84
2021/12/04 01:37:21;;;;;;;;;;;18.50;48.90;;;;;;5068018;28;42909;-83
2021/12/04 01:39:47;;;;;;;;;;;18.50;48.90;;;;;;5067489;28;43800;-83
2021/12/04 01:42:12;;;;;;;;;;;18.50;48.90;;;;;;5067330;28;42905;-84
2021/12/04 01:44:38;;;;;;;;;;;18.50;48.90;;;;;;5067075;28;42913;-84
2021/12/04 01:47:10;;;;;;;;;;;18.60;48.90;;;;;;5067517;28;42877;-82
2021/12/04 01:49:36;;;;;;;;;;;18.50;48.90;;;;;;5067967;28;42871;-83
2021/12/04 01:52:01;;;;;;;;;;;18.60;48.90;;;;;;5067373;28;43094;-83
2021/12/04 01:54:27;;;;;;;;;;;18.50;48.90;;;;;;5067451;28;42996;-84
2021/12/04 01:56:52;;;;;;;;;;;18.50;48.90;;;;;;5067411;28;42910;-84
2021/12/04 01:59:18;;;;;;;;;;;18.60;48.90;;;;;;5066780;28;42921;-83
2021/12/04 02:01:43;;;;;;;;;;;18.60;48.90;;;;;;5067316;28;42918;-83
2021/12/04 02:04:09;;;;;;;;;;;18.50;48.90;;;;;;5066926;28;42947;-78
2021/12/04 02:06:34;;;;;;;;;;;18.50;48.90;;;;;;5067022;28;43007;-83
2021/12/04 02:09:00;;;;;;;;;;;18.60;48.90;;;;;;5066746;28;43498;-84
2021/12/04 02:11:26;;;;;;;;;;;18.60;48.90;;;;;;5067300;28;42913;-84
2021/12/04 02:13:51;;;;;;;;;;;18.50;48.90;;;;;;5067024;28;43456;-84
2021/12/04 02:16:18;;;;;;;;;;;18.50;48.90;;;;;;5066577;28;43577;-82
2021/12/04 02:18:44;;;;;;;;;;;18.50;48.90;;;;;;5066906;28;42943;-83
2021/12/04 02:21:10;;;;;;;;;;;18.50;48.90;;;;;;5066696;28;42937;-84
2021/12/04 02:23:36;;;;;;;;;;;18.50;49.00;;;;;;5067362;28;43589;-80
2021/12/04 02:26:01;;;;;;;;;;;18.50;48.90;;;;;;5067117;28;42842;-83
2021/12/04 02:28:27;;;;;;;;;;;18.60;48.90;;;;;;5066570;28;42895;-83
2021/12/04 02:30:52;;;;;;;;;;;18.50;48.90;;;;;;5067420;28;43159;-83
2021/12/04 02:33:20;;;;;;;;;;;18.50;49.10;;;;;;5065729;28;44340;-83
2021/12/04 02:35:48;;;;;;;;;;;18.50;48.90;;;;;;5067405;28;42978;-83
2021/12/04 02:38:14;;;;;;;;;;;18.50;48.90;;;;;;5066496;28;43553;-81
2021/12/04 02:40:43;;;;;;;;;;;18.60;49.00;;;;;;5066859;28;43098;-77
2021/12/04 02:43:08;;;;;;;;;;;18.60;49.00;;;;;;5066616;28;43039;-83
2021/12/04 02:45:34;;;;;;;;;;;18.50;48.90;;;;;;5065819;28;43019;-76
2021/12/04 02:48:00;;;;;;;;;;;18.60;49.20;;;;;;5065189;27;43530;-80
2021/12/04 02:50:25;;;;;;;;;;;18.50;49.00;;;;;;5066164;28;42932;-83
2021/12/04 02:52:51;;;;;;;;;;;18.60;49.10;;;;;;5066578;28;42965;-81
2021/12/04 02:55:17;;;;;;;;;;;18.60;48.90;;;;;;5066320;28;42935;-83
2021/12/04 02:57:45;;;;;;;;;;;18.60;49.00;;;;;;5066427;28;43807;-80
2021/12/04 03:00:15;;;;;;;;;;;18.60;48.90;;;;;;5065751;28;42842;-83
2021/12/04 03:02:41;;;;;;;;;;;18.60;48.90;;;;;;5066313;28;42891;-82
2021/12/04 03:05:09;;;;;;;;;;;18.60;49.00;;;;;;5065599;28;42929;-83
2021/12/04 03:07:34;;;;;;;;;;;18.60;48.90;;;;;;5066703;28;42875;-83
2021/12/04 03:10:00;;;;;;;;;;;18.60;48.80;;;;;;5065903;28;43155;-83
2021/12/04 03:12:26;;;;;;;;;;;18.60;48.90;;;;;;5066679;28;42943;-83
2021/12/04 03:14:53;;;;;;;;;;;18.60;48.90;;;;;;5065715;28;43421;-84
2021/12/04 03:17:20;;;;;;;;;;;18.60;48.90;;;;;;5065743;28;42941;-83
2021/12/04 03:19:46;;;;;;;;;;;18.60;48.90;;;;;;5065667;28;42889;-84
2021/12/04 03:22:14;;;;;;;;;;;18.60;48.80;;;;;;5065412;28;42913;-82
2021/12/04 03:24:42;;;;;;;;;;;18.60;48.80;;;;;;5065654;28;43556;-83
2021/12/04 03:27:07;;;;;;;;;;;18.60;48.70;;;;;;5066238;28;43056;-81
2021/12/04 03:29:38;;;;;;;;;;;18.60;48.70;;;;;;5066211;28;43120;-83
2021/12/04 03:42:59;;;;;;;;;;;18.60;48.60;;;;;;5065374;28;42923;-80
2021/12/04 03:45:25;;;;;;;;;;;18.60;48.60;;;;;;5064509;28;43033;-80
2021/12/04 03:47:52;;;;;;;;;;;18.50;48.50;;;;;;5065692;28;43265;-83
2021/12/04 03:50:18;;;;;;;;;;;18.60;48.60;;;;;;5065630;28;42893;-79
2021/12/04 03:52:45;;;;;;;;;;;18.50;48.50;;;;;;5065621;28;42945;-77
2021/12/04 03:55:11;;;;;;;;;;;18.50;48.50;;;;;;5065645;28;43325;-83
2021/12/04 03:57:44;;;;;;;;;;;18.50;48.60;;;;;;5065094;28;43229;-82
2021/12/04 04:00:11;;;;;;;;;;;18.60;48.60;;;;;;5063793;28;42794;-84
2021/12/04 04:02:36;;;;;;;;;;;18.60;48.60;;;;;;5065895;28;42951;-83
2021/12/04 04:05:02;;;;;;;;;;;18.60;48.60;;;;;;5065713;28;43014;-83
2021/12/04 04:07:28;;;;;;;;;;;18.60;48.60;;;;;;5065955;28;42928;-83
2021/12/04 04:09:53;;;;;;;;;;;18.50;48.50;;;;;;5065307;28;42869;-84
2021/12/04 04:12:19;;;;;;;;;;;18.50;48.50;;;;;;5063964;28;43649;-84
2021/12/04 04:14:44;;;;;;;;;;;18.50;48.60;;;;;;5064147;28;43210;-83
2021/12/04 04:17:10;;;;;;;;;;;18.60;48.60;;;;;;5065280;28;42797;-83
2021/12/04 04:19:36;;;;;;;;;;;18.60;48.60;;;;;;5065104;28;42810;-84
2021/12/04 04:22:01;;;;;;;;;;;18.50;48.50;;;;;;5065392;28;43562;-82
2021/12/04 04:24:28;;;;;;;;;;;18.50;48.50;;;;;;5064761;28;42876;-81
2021/12/04 04:26:54;;;;;;;;;;;18.60;48.50;;;;;;5065384;28;43388;-84
2021/12/04 04:29:19;;;;;;;;;;;18.50;48.50;;;;;;5064818;28;43012;-83
2021/12/04 04:31:46;;;;;;;;;;;18.50;48.50;;;;;;5064918;28;42929;-83
2021/12/04 04:34:15;;;;;;;;;;;18.50;48.70;;;;;;5063531;28;42965;-83
2021/12/04 04:36:55;;;;;;;;;;;18.50;48.50;;;;;;5063277;28;42970;-79
2021/12/04 04:58:50;;;;;;;;;;;18.50;49.10;;;;;;5044707;28;43123;-79
2021/12/04 05:11:44;;;;;;;;;;;18.50;49.10;;;;;;5064060;28;42931;-77
2021/12/04 05:14:17;;;;;;;;;;;18.50;49.10;;;;;;5063891;28;42877;-78
2021/12/04 05:16:49;;;;;;;;;;;18.50;49.10;;;;;;5057837;28;43011;-78
2021/12/04 05:21:59;;;;;;;;;;;18.50;49.10;;;;;;5051712;28;42990;-77
2021/12/04 05:24:24;;;;;;;;;;;18.60;49.20;;;;;;5056162;28;42890;-77
2021/12/04 05:26:50;;;;;;;;;;;18.50;49.20;;;;;;5059024;28;43121;-76
2021/12/04 05:29:15;;;;;;;;;;;18.50;49.00;;;;;;5051375;28;43775;-77
2021/12/04 05:31:41;;;;;;;;;;;18.60;48.50;;;;;;5063616;27;43546;-77
2021/12/04 05:34:07;;;;;;;;;;;18.50;48.90;;;;;;5064087;28;43534;-76
2021/12/04 05:36:32;;;;;;;;;;;18.50;48.70;;;;;;5064012;28;42917;-77
2021/12/04 05:38:58;;;;;;;;;;;18.50;42.80;;;;;;5058421;28;43449;-78
2021/12/04 05:41:24;;;;;;;;;;;18.50;42.50;;;;;;5050619;28;42879;-78
2021/12/04 05:43:50;;;;;;;;;;;18.50;38.30;;;;;;5052598;28;43031;-79
2021/12/04 05:46:18;;;;;;;;;;;18.40;36.40;;;;;;5044173;28;43011;-77
2021/12/04 05:54:05;;;;;;;;;;;18.30;35.00;;;;;;5043504;28;43764;-77
2021/12/04 05:56:29;;;;;;;;;;;18.20;34.70;;;;;;5043789;28;43050;-78
2021/12/04 05:58:56;;;;;;;;;;;18.10;34.80;;;;;;5043179;28;42958;-79
2021/12/04 06:01:22;;;;;;;;;;;18.00;34.80;;;;;;5043594;28;42912;-76
2021/12/04 06:03:48;;;;;;;;;;;18.00;34.70;;;;;;5042330;28;42995;-76
2021/12/04 06:06:14;;;;;;;;;;;17.90;34.60;;;;;;5042901;28;42983;-78
2021/12/04 06:08:39;;;;;;;;;;;17.90;34.60;;;;;;5043080;28;43601;-77
2021/12/04 06:11:05;;;;;;;;;;;17.80;34.70;;;;;;5043776;28;42905;-77
2021/12/04 06:13:30;;;;;;;;;;;17.70;35.00;;;;;;5060253;28;43335;-76
2021/12/04 06:15:56;;;;;;;;;;;17.70;35.00;;;;;;5062143;28;42925;-76
2021/12/04 06:18:22;;;;;;;;;;;17.70;34.90;;;;;;5072379;27;44452;-76
2021/12/04 06:23:32;;;;;;;;;;;17.60;34.90;;;;;;5075743;28;43096;-77
2021/12/04 06:25:58;;;;;;;;;;;17.60;34.90;;;;;;5078030;28;42902;-76
2021/12/04 06:28:24;;;;;;;;;;;17.60;34.90;;;;;;5080705;27;43024;-76
2021/12/04 06:30:52;;;;;;;;;;;17.50;35.40;;;;;;5076904;28;43088;-75
2021/12/04 06:33:18;;;;;;;;;;;17.50;34.90;;;;;;5086418;27;43423;-78
2021/12/04 06:35:44;;;;;;;;;;;17.50;35.00;;;;;;5084824;28;42981;-75
2021/12/04 06:38:10;;;;;;;;;;;17.40;35.00;;;;;;5086453;27;43300;-77
2021/12/04 06:40:36;;;;;;;;;;;17.40;35.00;;;;;;5070540;27;42995;-81
2021/12/04 06:43:02;;;;;;;;;;;17.40;35.00;;;;;;5045754;28;44831;-78
2021/12/04 06:45:30;;;;;;;;;;;17.40;34.90;;;;;;5066865;28;43009;-78
2021/12/04 06:48:02;;;;;;;;;;;17.30;34.80;;;;;;5065766;28;43126;-79
2021/12/04 06:52:59;;;;;;;;;;;17.30;35.00;;;;;;5065996;28;42936;-79
2021/12/04 06:55:29;;;;;;;;;;;17.30;35.00;;;;;;5066674;28;43035;-78
2021/12/04 06:57:55;;;;;;;;;;;17.20;34.80;;;;;;5058246;28;43972;-79
2021/12/04 07:00:20;;;;;;;;;;;17.20;34.80;;;;;;5046849;28;43120;-78
2021/12/04 07:02:46;;;;;;;;;;;17.10;34.90;;;;;;5046213;28;42910;-78
2021/12/04 07:05:11;;;;;;;;;;;17.10;35.10;;;;;;5046460;28;42957;-79
2021/12/04 07:07:37;;;;;;;;;;;17.10;35.00;;;;;;5046198;28;42980;-77
2021/12/04 07:10:02;;;;;;;;;;;16.30;34.60;;;;;;5046367;28;43124;-80
2021/12/04 07:12:28;;;;;;;;;;;17.00;35.00;;;;;;5045620;28;42836;-78
2021/12/04 07:14:53;;;;;;;;;;;17.00;34.90;;;;;;5046179;28;42965;-77
2021/12/04 07:17:19;;;;;;;;;;;17.00;35.00;;;;;;5045973;28;42967;-79
2021/12/04 07:19:44;;;;;;;;;;;17.00;35.10;;;;;;5045960;28;42994;-79
2021/12/04 07:22:11;;;;;;;;;;;17.00;35.20;;;;;;5044555;28;43009;-78
2021/12/04 07:24:36;;;;;;;;;;;17.00;35.10;;;;;;5046028;28;43037;-78
2021/12/04 07:27:02;;;;;;;;;;;17.00;35.00;;;;;;5045099;28;43701;-79
2021/12/04 07:29:27;;;;;;;;;;;16.90;34.80;;;;;;5045687;28;42872;-77
2021/12/04 07:31:53;;;;;;;;;;;16.90;34.90;;;;;;5045058;28;43380;-81
2021/12/04 07:34:19;;;;;;;;;;;16.90;34.90;;;;;;5052205;28;42862;-81
2021/12/04 07:36:44;;;;;;;;;;;16.80;34.80;;;;;;5065745;28;43567;-77
2021/12/04 07:39:10;;;;;;;;;;;16.80;34.90;;;;;;5065310;28;42834;-77
2021/12/04 07:41:42;;;;;;;;;;;16.80;35.00;;;;;;5076113;28;42893;-77
2021/12/04 07:44:08;;;;;;;;;;;16.80;35.00;;;;;;5061239;28;43000;-80
2021/12/04 07:46:38;;;;;;;;;;;16.70;35.60;;;;;;5068550;28;42956;-78
2021/12/04 07:49:03;;;;;;;;;;;16.70;35.10;;;;;;5065783;28;42961;-77
2021/12/04 07:51:29;;;;;;;;;;;16.70;35.20;;;;;;5058930;28;43608;-79
2021/12/04 07:53:54;;;;;;;;;;;16.70;35.30;;;;;;5065416;28;43107;-78
2021/12/04 07:56:20;;;;;;;;;;;16.60;35.20;;;;;;5069553;28;43997;-79
2021/12/04 07:58:46;;;;;;;;;;;16.60;35.20;;;;;;5065365;28;42929;-77
2021/12/04 08:01:11;;;;;;;;;;;16.60;35.30;;;;;;5077240;28;43801;-76
2021/12/04 08:03:37;;;;;;;;;;;16.60;35.40;;;;;;5085416;28;42791;-78
2021/12/04 08:06:03;;;;;;;;;;;16.60;35.40;;;;;;5085607;27;43031;-78
2021/12/04 08:08:28;;;;;;;;;;;16.60;35.50;;;;;;5086117;27;42754;-77
2021/12/04 08:10:54;;;;;;;;;;;16.60;35.50;;;;;;5064197;28;43382;-78
2021/12/04 08:13:20;;;;;;;;;;;16.60;35.60;;;;;;5065123;28;43541;-77
2021/12/04 08:15:46;;;;;;;;;;;16.50;35.90;;;;;;5063841;28;44663;-77
2021/12/04 08:18:11;;;;;;;;;;;16.60;36.10;;;;;;5062958;28;43034;-78
2021/12/04 08:20:37;;;;;;;;;;;16.50;36.00;;;;;;5064138;28;43482;-80
2021/12/04 08:23:03;;;;;;;;;;;16.50;35.70;;;;;;5064037;28;43089;-80
2021/12/04 08:25:31;;;;;;;;;;;16.50;35.70;;;;;;5065402;28;43506;-80
2021/12/04 08:27:57;;;;;;;;;;;16.40;35.70;;;;;;5065697;28;43016;-82
2021/12/04 08:30:24;;;;;;;;;;;16.40;35.80;;;;;;5065649;28;42931;-80
2021/12/04 08:32:52;;;;;;;;;;;16.40;35.80;;;;;;5065823;28;42937;-79
2021/12/04 08:35:18;;;;;;;;;;;16.50;35.90;;;;;;5065241;28;43068;-80
2021/12/04 08:37:45;;;;;;;;;;;16.40;36.00;;;;;;5065058;28;43746;-79
2021/12/04 08:40:14;;;;;;;;;;;16.40;36.00;;;;;;5065573;28;42871;-80
2021/12/04 08:42:41;;;;;;;;;;;16.40;35.90;;;;;;5065279;28;43120;-81
2021/12/04 08:45:08;;;;;;;;;;;;;;;;;;5063997;28;43900;-80
2021/12/04 08:47:34;;;;;;;;;;;16.50;51.50;;;;;;5065098;28;42805;-81
2021/12/04 08:50:00;;;;;;;;;;;16.30;45.30;;;;;;5065720;28;43179;-80
2021/12/04 08:52:25;;;;;;;;;;;16.30;48.60;;;;;;5065269;28;42934;-80
2021/12/04 08:54:51;;;;;;;;;;;16.40;51.90;;;;;;5065446;28;42975;-81
2021/12/04 08:57:17;;;;;;;;;;;16.10;51.90;;;;;;5065290;28;42921;-80
2021/12/04 08:59:45;;;;;;;;;;;16.40;45.50;;;;;;5065297;28;43356;-82
2021/12/04 09:02:11;;;;;;;;;;;16.10;52.20;;;;;;5065478;28;43074;-80
2021/12/04 09:04:37;;;;;;;;;;;16.50;51.50;;;;;;5065129;28;43058;-80
2021/12/04 09:07:03;;;;;;;;;;;16.30;50.60;;;;;;5063983;28;43121;-81
2021/12/04 09:09:29;;;;;;;;;;;16.30;51.60;;;;;;5065283;28;42959;-80
2021/12/04 09:12:01;;;;;;;;;;;16.40;49.00;;;;;;5065193;28;42995;-81
2021/12/04 09:14:28;;;;;;;;;;;16.20;43.60;;;;;;5064990;28;43466;-81
2021/12/04 09:16:55;;;;;;;;;;;16.20;42.00;;;;;;5063534;28;43095;-80
2021/12/04 09:19:22;;;;;;;;;;;16.30;42.10;;;;;;5065034;28;42751;-82
2021/12/04 09:21:49;;;;;;;;;;;16.10;41.20;;;;;;5065225;28;42828;-81
2021/12/04 09:24:16;;;;;;;;;;;16.30;40.30;;;;;;5065260;28;43442;-79
2021/12/04 10:04:32;;;;;;;;;;;16.00;38.30;;;;;;5068051;28;42952;-80
2021/12/04 10:13:05;;;;;;;;;;;15.50;37.90;;;;;;5067862;28;42923;-80
2021/12/04 10:21:33;;;;;;;;;;;16.20;38.90;;;;;;5067347;28;42988;-80
2021/12/04 10:34:11;;;;;;;;;;;16.20;39.00;;;;;;5067710;28;42840;-79
2021/12/04 10:36:39;;;;;;;;;;;16.10;39.80;;;;;;5065774;28;42782;-79
2021/12/04 10:39:08;;;;;;;;;;;16.00;39.70;;;;;;5067300;28;43449;-82
2021/12/04 10:41:35;;;;;;;;;;;16.20;40.30;;;;;;5067325;28;42932;-82
2021/12/04 10:44:26;;;;;;;;;;;16.00;39.90;;;;;;5067235;28;42788;-83
2021/12/04 10:46:55;;;;;;;;;;;16.10;39.50;;;;;;5065792;28;43337;-83
2021/12/04 10:49:37;;;;;;;;;;;16.10;39.90;;;;;;5067097;28;43588;-83
2021/12/04 10:52:05;;;;;;;;;;;16.10;40.00;;;;;;5067775;28;42948;-80
2021/12/04 10:54:38;;;;;;;;;;;16.10;40.20;;;;;;5066064;28;44610;-80
2021/12/04 10:59:56;;;;;;;;;;;16.00;39.70;;;;;;5067077;28;42991;-80
2021/12/04 11:02:29;;;;;;;;;;;16.20;40.20;;;;;;5067272;28;42968;-82
2021/12/04 11:05:28;;;;;;;;;;;16.10;39.90;;;;;;5067022;28;43480;-83
2021/12/04 11:18:36;;;;;;;;;;;16.10;39.90;;;;;;5066236;28;43240;-80
2021/12/04 11:41:00;;;;;;;;;;;16.10;40.40;;;;;;5066583;28;43016;-82
2021/12/04 11:43:20;;;;;;;;;;;16.00;40.50;;;;;;5065709;28;43247;-84
2021/12/04 11:46:00;;;;;;;;;;;16.00;41.30;;;;;;5066738;28;42902;-82
2021/12/04 11:48:31;;;;;;;;;;;16.00;40.90;;;;;;5066517;28;42985;-83
2021/12/04 11:50:57;;;;;;;;;;;16.00;40.30;;;;;;5066498;28;42771;-83
2021/12/04 11:53:23;;;;;;;;;;;15.90;41.20;;;;;;5066363;28;43419;-84
2021/12/04 11:55:51;;;;;;;;;;;16.10;42.20;;;;;;5065640;28;42911;-84
2021/12/04 11:58:21;;;;;;;;;;;16.00;41.90;;;;;;5066262;28;42917;-80
2021/12/04 12:00:47;;;;;;;;;;;16.10;42.00;;;;;;5065924;28;43128;-81
2021/12/04 12:03:20;;;;;;;;;;;16.00;42.10;;;;;;5066050;28;43594;-83
2021/12/04 12:05:46;;;;;;;;;;;15.90;41.40;;;;;;5066154;28;42985;-84
2021/12/04 12:08:28;;;;;;;;;;;15.90;41.90;;;;;;5065710;28;42938;-82
2021/12/04 12:10:55;;;;;;;;;;;15.90;42.20;;;;;;5065840;28;42842;-84
2021/12/04 12:13:25;;;;;;;;;;;16.00;43.20;;;;;;5065140;28;42934;-83
2021/12/04 12:15:58;;;;;;;;;;;15.90;42.40;;;;;;5065979;28;42976;-81
2021/12/04 12:18:27;;;;;;;;;;;15.90;42.80;;;;;;5064554;28;63449;-80
2021/12/04 12:20:57;;;;;;;;;;;16.50;43.90;;;;;;5065378;28;42910;-81
2021/12/04 12:23:29;;;;;;;;;;;15.90;43.10;;;;;;5065734;28;43713;-78
2021/12/04 12:37:24;;;;;;;;;;;16.40;43.20;;;;;;5052803;28;43042;-79
2021/12/04 12:40:04;;;;;;;;;;;16.00;43.40;;;;;;5065167;28;42882;-78
2021/12/04 12:42:31;;;;;;;;;;;16.00;42.70;;;;;;5065608;28;42924;-79
2021/12/04 12:45:15;;;;;;;;;;;16.10;43.20;;;;;;5064948;28;42973;-78
2021/12/04 12:47:48;;;;;;;;;;;15.90;43.20;;;;;;5065267;28;42941;-79
2021/12/04 12:50:24;;;;;;;;;;;16.00;43.20;;;;;;5063884;28;44295;-79
2021/12/04 12:52:58;;;;;;;;;;;16.00;43.10;;;;;;5065173;28;42797;-78
2021/12/04 12:55:23;;;;;;;;;;;16.00;42.30;;;;;;5065181;28;43393;-79
2021/12/04 12:57:49;;;;;;;;;;;15.90;43.50;;;;;;5065261;28;42945;-79
2021/12/04 13:13:53;;;;;;;;;;;15.90;36.40;;;;;;5064249;28;42956;-82
2021/12/04 13:16:21;;;;;;;;;;;15.90;36.80;;;;;;5063580;28;42978;-82
2021/12/04 13:18:56;;;;;;;;;;;15.90;37.00;;;;;;5063018;28;43241;-83
2021/12/04 13:21:24;;;;;;;;;;;16.00;37.20;;;;;;5062295;28;42995;-82
2021/12/04 13:23:51;;;;;;;;;;;16.00;37.40;;;;;;5061512;28;42881;-81
2021/12/04 13:26:17;;;;;;;;;;;16.00;37.60;;;;;;5061706;28;45335;-81
2021/12/04 13:28:46;;;;;;;;;;;15.90;37.70;;;;;;5063527;28;42979;-81
2021/12/04 13:31:12;;;;;;;;;;;16.00;37.90;;;;;;5063772;28;43046;-79
2021/12/04 13:33:39;;;;;;;;;;;16.00;38.10;;;;;;5067126;28;42949;-84
2021/12/04 13:36:15;;;;;;;;;;;16.00;38.50;;;;;;5066170;28;44465;-86
2021/12/04 13:38:40;;;;;;;;;;;16.00;38.30;;;;;;5060591;28;43023;-80
2021/12/04 13:41:06;;;;;;;;;;;16.00;38.40;;;;;;5061194;28;43130;-83
2021/12/04 13:43:32;;;;;;;;;;;16.00;38.60;;;;;;5066864;28;43015;-80
2021/12/04 13:45:59;;;;;;;;;;;16.00;38.70;;;;;;5067689;28;43427;-82
2021/12/04 13:48:24;;;;;;;;;;;16.00;38.80;;;;;;5066195;28;43124;-80
2021/12/04 13:50:50;;;;;;;;;;;16.10;38.80;;;;;;5067594;28;42963;-81
2021/12/04 13:53:26;;;;;;;;;;;16.00;38.90;;;;;;5063676;28;43057;-82
2021/12/04 13:55:58;;;;;;;;;;;15.90;38.90;;;;;;5045565;28;43124;-81
2021/12/04 13:58:25;;;;;;;;;;;16.10;39.10;;;;;;5061652;28;43102;-81
2021/12/04 14:00:50;;;;;;;;;;;16.10;39.40;;;;;;5063557;28;44053;-82
2021/12/04 14:03:20;;;;;;;;;;;16.10;39.40;;;;;;5065743;28;42990;-80
2021/12/04 14:05:46;;;;;;;;;;;16.10;39.30;;;;;;5065489;28;43754;-81
2021/12/04 14:08:11;;;;;;;;;;;16.10;39.40;;;;;;5068589;28;42795;-81
2021/12/04 14:10:42;;;;;;;;;;;16.10;39.50;;;;;;5067671;28;43664;-81
2021/12/04 14:13:10;;;;;;;;;;;16.10;39.50;;;;;;5067769;28;42767;-81
2021/12/04 14:15:37;;;;;;;;;;;16.20;39.70;;;;;;5067422;28;43416;-81
2021/12/04 14:18:07;;;;;;;;;;;16.20;39.70;;;;;;5067721;28;42926;-81
2021/12/04 14:20:33;;;;;;;;;;;16.20;39.70;;;;;;5067681;28;43367;-82
2021/12/04 14:22:59;;;;;;;;;;;16.20;39.80;;;;;;5067750;28;42759;-81
2021/12/04 14:25:25;;;;;;;;;;;16.20;39.90;;;;;;5067336;28;43547;-81
2021/12/04 14:27:52;;;;;;;;;;;16.20;39.90;;;;;;5067625;28;42894;-81
2021/12/04 14:30:25;;;;;;;;;;;16.20;40.00;;;;;;5065941;28;45581;-81
2021/12/04 14:32:53;;;;;;;;;;;16.20;40.00;;;;;;5067276;28;43139;-81
2021/12/04 14:35:20;;;;;;;;;;;16.20;40.10;;;;;;5067454;28;43350;-82
2021/12/04 14:37:48;;;;;;;;;;;16.30;40.20;;;;;;5067700;28;42942;-81
2021/12/04 14:40:19;;;;;;;;;;;16.30;40.30;;;;;;5065922;28;43599;-81
2021/12/04 14:42:45;;;;;;;;;;;16.30;40.30;;;;;;5066792;28;42932;-81
2021/12/04 14:45:13;;;;;;;;;;;16.20;40.30;;;;;;5067248;28;42804;-82
2021/12/04 14:47:45;;;;;;;;;;;16.30;40.40;;;;;;5067630;28;42849;-79
2021/12/04 14:50:13;;;;;;;;;;;16.30;40.40;;;;;;5067222;28;43028;-81
2021/12/04 14:52:38;;;;;;;;;;;16.30;40.50;;;;;;5066048;28;42911;-81
2021/12/04 14:55:16;;;;;;;;;;;16.30;40.50;;;;;;5066698;28;43328;-82
2021/12/04 14:57:42;;;;;;;;;;;16.30;40.50;;;;;;5066561;28;42937;-82
2021/12/04 15:00:11;;;;;;;;;;;16.30;40.60;;;;;;5067320;28;43585;-81
2021/12/04 15:02:37;;;;;;;;;;;16.30;40.60;;;;;;5065685;28;42783;-80
2021/12/04 15:05:03;;;;;;;;;;;16.40;40.70;;;;;;5066961;28;42948;-82
2021/12/04 15:07:31;;;;;;;;;;;16.40;40.70;;;;;;5066750;28;42930;-81
2021/12/04 15:09:57;;;;;;;;;;;16.40;40.80;;;;;;5065733;28;44099;-82
2021/12/04 15:12:26;;;;;;;;;;;16.40;40.80;;;;;;5067062;28;42991;-81
2021/12/04 15:14:59;;;;;;;;;;;16.40;40.80;;;;;;5065921;28;43369;-81
2021/12/04 15:17:25;;;;;;;;;;;16.40;40.90;;;;;;5066226;28;42924;-81
2021/12/04 15:19:53;;;;;;;;;;;16.40;41.00;;;;;;5065999;28;44235;-81
2021/12/04 15:22:45;;;;;;;;;;;16.40;41.00;;;;;;5066467;28;43016;-81
2021/12/04 15:25:10;;;;;;;;;;;16.40;41.00;;;;;;5065734;28;43582;-80
2021/12/04 15:27:36;;;;;;;;;;;16.40;41.10;;;;;;5067072;28;42806;-80
2021/12/04 15:30:04;;;;;;;;;;;16.50;41.10;;;;;;5065825;28;42929;-79
2021/12/04 15:32:30;;;;;;;;;;;16.50;41.10;;;;;;5066161;28;42997;-80
2021/12/04 15:35:08;;;;;;;;;;;16.50;41.20;;;;;;5065849;28;43553;-81
2021/12/04 15:37:42;;;;;;;;;;;16.50;41.20;;;;;;5065651;28;42943;-81
2021/12/04 15:40:21;;;;;;;;;;;16.40;41.20;;;;;;5066574;28;42938;-81
2021/12/04 15:43:07;;;;;;;;;;;16.50;41.30;;;;;;5066645;28;42886;-81
2021/12/04 15:51:14;;;;;;;;;;;16.50;41.30;;;;;;5066566;28;43014;-80
2021/12/04 15:53:48;;;;;;;;;;;16.60;41.40;;;;;;5066329;28;43155;-79
2021/12/04 15:56:14;;;;;;;;;;;16.50;41.40;;;;;;5066368;28;43015;-81
2021/12/04 15:58:40;;;;;;;;;;;16.60;41.60;;;;;;5065748;28;42957;-81
2021/12/04 16:01:07;;;;;;;;;;;16.60;41.60;;;;;;5066852;28;42860;-80
2021/12/04 16:03:36;;;;;;;;;;;16.60;41.60;;;;;;5064467;28;42972;-81
2021/12/04 16:06:03;;;;;;;;;;;16.60;41.60;;;;;;5065325;28;42950;-79
2021/12/04 16:08:30;;;;;;;;;;;16.60;41.60;;;;;;5065659;28;42933;-80
2021/12/04 16:10:56;;;;;;;;;;;16.60;41.60;;;;;;5066466;28;43478;-80
2021/12/04 16:13:26;;;;;;;;;;;16.60;41.70;;;;;;5066111;28;42839;-80
2021/12/04 16:15:53;;;;;;;;;;;16.60;41.70;;;;;;5065623;28;42977;-80
2021/12/04 16:18:18;;;;;;;;;;;16.60;41.70;;;;;;5065889;28;42994;-80
2021/12/04 16:20:45;;;;;;;;;;;16.60;41.80;;;;;;5065860;28;42925;-81
2021/12/04 16:23:14;;;;;;;;;;;16.70;41.80;;;;;;5065635;28;42935;-81
2021/12/04 16:25:40;;;;;;;;;;;16.70;41.80;;;;;;5066042;28;42944;-81
2021/12/04 16:35:54;;;;;;;;;;;16.70;41.90;;;;;;5065583;28;43054;-79
2021/12/04 16:38:21;;;;;;;;;;;16.70;42.00;;;;;;5064203;28;43054;-80
2021/12/04 16:40:47;;;;;;;;;;;16.70;42.00;;;;;;5065784;28;42803;-82
2021/12/04 16:43:17;;;;;;;;;;;16.70;42.00;;;;;;5065424;28;42846;-80
2021/12/04 16:45:48;;;;;;;;;;;16.70;42.00;;;;;;5065404;28;43396;-82
2021/12/04 16:48:15;;;;;;;;;;;16.70;42.00;;;;;;5065098;28;43586;-79
2021/12/04 16:56:17;;;;;;;;;;;16.80;42.10;;;;;;5065790;28;43212;-81
2021/12/04 16:58:45;;;;;;;;;;;16.80;42.20;;;;;;5065437;28;42893;-82
2021/12/04 17:01:11;;;;;;;;;;;16.80;42.20;;;;;;5063699;28;43523;-82
2021/12/04 17:03:39;;;;;;;;;;;16.30;42.20;;;;;;5063713;28;42930;-82
2021/12/04 17:06:05;;;;;;;;;;;16.80;42.20;;;;;;5064716;28;42921;-80
2021/12/04 17:08:31;;;;;;;;;;;16.90;42.30;;;;;;5065563;28;42961;-81
2021/12/04 17:10:56;;;;;;;;;;;16.90;42.30;;;;;;5065200;28;42895;-83
2021/12/04 17:13:22;;;;;;;;;;;16.90;42.30;;;;;;5065181;28;43117;-82
2021/12/04 17:15:48;;;;;;;;;;;16.90;42.30;;;;;;5065319;28;42847;-83
2021/12/04 17:18:16;;;;;;;;;;;16.90;42.30;;;;;;5064974;28;42854;-83
2021/12/04 17:20:42;;;;;;;;;;;16.80;42.30;;;;;;5065012;28;43590;-82
2021/12/04 17:23:08;;;;;;;;;;;16.90;42.30;;;;;;5065099;28;42758;-83
2021/12/04 17:25:35;;;;;;;;;;;16.90;42.40;;;;;;5064830;28;42906;-82
2021/12/04 17:28:02;;;;;;;;;;;16.90;42.40;;;;;;5064769;28;43048;-82
2021/12/04 17:30:28;;;;;;;;;;;16.90;42.40;;;;;;5064797;28;42916;-82
2021/12/04 17:32:54;;;;;;;;;;;16.90;42.40;;;;;;5065211;28;42848;-82
2021/12/04 17:35:20;;;;;;;;;;;16.90;42.40;;;;;;5065002;28;43289;-82
2021/12/04 17:37:46;;;;;;;;;;;16.90;42.40;;;;;;5064889;28;42783;-82
2021/12/04 17:40:12;;;;;;;;;;;17.00;42.50;;;;;;5064793;28;42932;-82
2021/12/04 17:42:39;;;;;;;;;;;16.90;42.50;;;;;;5065135;28;42834;-82
2021/12/04 17:45:06;;;;;;;;;;;17.00;42.50;;;;;;5064893;28;42860;-83